Time;durP1;ratioP1;P1;durP2;ratioP2;P2;SDS_P1;SDS_P2;PMS_P1;PMS_P2;Temp;Humidity;BMP_temperature;BMP_pressure;BME280_temperature;BME280_humidity;BME280_pressure;Samples;Min_cycle;Max_cycle;Signal;HPM_P1;HPM_P2
2023/01/15 00:00:57;;;;;;;2.30;2.10;;;;;;;10.07;100.00;98434.31;5019339;28;20461;-78
2023/01/15 00:03:25;;;;;;;1.83;1.00;;;;;;;10.08;100.00;98443.81;5019292;28;20202;-78
2023/01/15 00:05:51;;;;;;;0.90;0.90;;;;;;;10.10;100.00;98452.41;5018662;28;20202;-78
2023/01/15 00:08:18;;;;;;;1.67;1.00;;;;;;;10.02;100.00;98463.22;5019680;28;20260;-78
2023/01/15 00:10:45;;;;;;;0.70;0.70;;;;;;;9.93;100.00;98482.75;5023278;28;20269;-78
2023/01/15 00:13:11;;;;;;;1.17;1.07;;;;;;;9.92;100.00;98485.41;5026455;28;20206;-78
2023/01/15 00:15:37;;;;;;;0.80;0.80;;;;;;;9.88;100.00;98494.31;5020116;28;20736;-77
2023/01/15 00:18:04;;;;;;;1.60;1.10;;;;;;;9.69;100.00;98474.34;5019390;28;20199;-78
2023/01/15 00:20:32;;;;;;;2.07;1.33;;;;;;;9.71;100.00;98443.84;5021946;28;20222;-77
2023/01/15 00:22:58;;;;;;;3.57;2.27;;;;;;;9.70;100.00;98447.34;5025447;28;20194;-77
2023/01/15 00:28:08;;;;;;;2.40;1.60;;;;;;;9.49;100.00;98461.38;5023852;28;20696;-78
2023/01/15 00:30:40;;;;;;;1.90;1.80;;;;;;;9.57;100.00;98461.03;5023591;28;20230;-77
2023/01/15 00:33:06;;;;;;;1.07;0.63;;;;;;;8.93;100.00;98513.31;5021990;28;20611;-78
2023/01/15 00:35:34;;;;;;;1.03;0.43;;;;;;;8.73;100.00;98511.56;5021506;28;20779;-78
2023/01/15 00:38:00;;;;;;;0.80;0.70;;;;;;;8.27;100.00;98490.06;5022773;28;20229;-79
2023/01/15 00:40:27;;;;;;;1.30;0.70;;;;;;;7.90;100.00;98488.09;5023988;28;20234;-80
2023/01/15 00:42:54;;;;;;;1.40;0.57;;;;;;;7.78;100.00;98481.63;5031951;28;20270;-78
2023/01/15 00:45:20;;;;;;;0.60;0.50;;;;;;;7.65;100.00;98472.63;5023374;28;20253;-78
2023/01/15 00:47:49;;;;;;;1.13;0.30;;;;;;;7.47;100.00;98506.19;5024528;28;20592;-76
2023/01/15 00:50:15;;;;;;;1.00;0.40;;;;;;;7.39;100.00;98509.97;5022364;28;20770;-78
2023/01/15 00:52:43;;;;;;;1.73;0.40;;;;;;;7.22;100.00;98555.53;5023778;28;20226;-78
2023/01/15 00:55:09;;;;;;;1.63;0.50;;;;;;;6.86;100.00;98600.03;5024833;28;20225;-78
2023/01/15 00:57:36;;;;;;;1.30;0.63;;;;;;;6.73;100.00;98599.56;5023235;28;20203;-78
2023/01/15 01:00:03;;;;;;;4.40;0.60;;;;;;;6.54;100.00;98593.28;5021920;28;20226;-78
2023/01/15 01:02:29;;;;;;;0.80;0.40;;;;;;;6.59;100.00;98573.25;5024199;28;20196;-78
2023/01/15 01:04:56;;;;;;;0.73;0.40;;;;;;;6.51;100.00;98578.69;5023016;28;20210;-76
2023/01/15 01:07:22;;;;;;;1.53;0.60;;;;;;;6.44;100.00;98574.63;5032514;28;20701;-78
2023/01/15 01:09:50;;;;;;;1.33;0.40;;;;;;;6.29;100.00;98581.13;5033400;28;20276;-78
2023/01/15 01:12:16;;;;;;;1.30;0.40;;;;;;;6.38;100.00;98584.31;5042054;28;20224;-78
2023/01/15 01:14:43;;;;;;;2.20;0.60;;;;;;;6.44;100.00;98591.88;5051902;28;20754;-78
2023/01/15 01:17:09;;;;;;;1.27;0.40;;;;;;;6.24;100.00;98614.09;5053360;28;20284;-78
2023/01/15 01:19:36;;;;;;;0.47;0.47;;;;;;;6.14;100.00;98602.31;5053449;28;21059;-78
2023/01/15 01:22:02;;;;;;;1.30;0.30;;;;;;;6.16;100.00;98610.88;5053377;28;20200;-77
2023/01/15 01:24:29;;;;;;;0.60;0.40;;;;;;;6.09;100.00;98628.38;5053797;28;20210;-78
2023/01/15 01:26:56;;;;;;;1.77;0.30;;;;;;;5.92;100.00;98622.81;5052850;28;20757;-78
2023/01/15 01:29:23;;;;;;;0.33;0.20;;;;;;;5.93;100.00;98633.13;5055538;28;20550;-76
2023/01/15 01:31:50;;;;;;;2.23;0.30;;;;;;;5.83;100.00;98652.41;5055868;28;20320;-78
2023/01/15 01:34:16;;;;;;;0.53;0.20;;;;;;;5.86;100.00;98690.31;5057742;28;20280;-78
2023/01/15 01:36:44;;;;;;;1.03;0.40;;;;;;;5.82;100.00;98705.06;5057415;28;20286;-79
2023/01/15 01:39:14;;;;;;;1.20;0.30;;;;;;;5.74;100.00;98717.38;5057392;28;20209;-78
2023/01/15 01:41:40;;;;;;;0.20;0.20;;;;;;;5.56;100.00;98722.16;5052496;28;20198;-78
2023/01/15 01:44:46;;;;;;;0.47;0.20;;;;;;;5.45;100.00;98733.66;5050559;28;20625;-78
2023/01/15 01:47:17;;;;;;;1.57;0.23;;;;;;;5.44;100.00;98724.22;5057482;28;20211;-78
2023/01/15 01:49:46;;;;;;;0.30;0.20;;;;;;;5.39;100.00;98726.91;5057901;28;20261;-77
2023/01/15 01:52:15;;;;;;;0.20;0.20;;;;;;;5.45;100.00;98695.72;5056778;28;20288;-78
2023/01/15 01:54:46;;;;;;;0.20;0.20;;;;;;;5.39;100.00;98701.03;5057498;28;20207;-78
2023/01/15 01:57:14;;;;;;;0.43;0.20;;;;;;;5.42;100.00;98713.06;5057592;28;20202;-78
2023/01/15 01:59:42;;;;;;;0.20;0.20;;;;;;;5.30;100.00;98730.59;5057727;28;20227;-78
2023/01/15 02:02:09;;;;;;;1.17;0.30;;;;;;;5.06;100.00;98721.69;5056415;28;20226;-78
2023/01/15 02:04:36;;;;;;;0.93;0.30;;;;;;;5.07;100.00;98697.53;5057053;28;20206;-77
2023/01/15 02:07:04;;;;;;;1.07;0.30;;;;;;;4.99;100.00;98699.47;5056888;28;20254;-78
2023/01/15 02:09:30;;;;;;;0.77;0.30;;;;;;;4.91;100.00;98711.72;5056668;28;20211;-77
2023/01/15 02:12:04;;;;;;;0.90;0.50;;;;;;;4.91;100.00;98722.06;5049526;28;20707;-78
2023/01/15 02:14:35;;;;;;;0.80;0.20;;;;;;;5.02;100.00;98719.25;5053963;28;20204;-78
2023/01/15 02:17:12;;;;;;;1.50;0.30;;;;;;;4.95;100.00;98734.88;5056931;28;20755;-77
2023/01/15 02:19:49;;;;;;;0.93;0.20;;;;;;;4.94;100.00;98719.41;5056490;28;20229;-78
2023/01/15 02:22:27;;;;;;;0.80;0.20;;;;;;;5.08;100.00;98717.34;5056370;28;20210;-77
2023/01/15 02:25:03;;;;;;;4.53;0.63;;;;;;;4.96;100.00;98713.31;5056976;28;20248;-78
2023/01/15 02:27:31;;;;;;;1.07;0.50;;;;;;;5.07;100.00;98713.03;5056407;28;20211;-77
2023/01/15 02:30:03;;;;;;;0.40;0.40;;;;;;;5.03;100.00;98723.50;5056221;28;20228;-77
2023/01/15 02:32:35;;;;;;;1.17;0.40;;;;;;;5.06;100.00;98738.97;5056613;28;20245;-78
2023/01/15 02:35:08;;;;;;;1.33;0.40;;;;;;;4.93;100.00;98778.00;5056647;28;20263;-78
2023/01/15 02:37:41;;;;;;;0.90;0.60;;;;;;;4.92;100.00;98780.66;5056409;28;20202;-78
2023/01/15 02:40:10;;;;;;;0.23;0.20;;;;;;;4.81;100.00;98790.38;5054161;28;20289;-77
2023/01/15 02:42:40;;;;;;;1.10;0.60;;;;;;;4.81;100.00;98792.97;5044764;28;20207;-77
2023/01/15 02:45:10;;;;;;;1.73;0.70;;;;;;;4.88;100.00;98781.63;5056436;28;20203;-78
2023/01/15 02:47:42;;;;;;;0.87;0.30;;;;;;;5.00;100.00;98763.22;5056178;28;20202;-78
2023/01/15 02:50:17;;;;;;;0.57;0.33;;;;;;;5.00;99.72;98790.84;5055066;28;20235;-78
2023/01/15 02:52:46;;;;;;;0.17;0.10;;;;;;;4.85;98.50;98830.78;5055429;28;20266;-77
2023/01/15 02:55:18;;;;;;;0.77;0.20;;;;;;;4.82;98.41;98820.53;5046658;28;20256;-77
2023/01/15 02:57:48;;;;;;;0.30;0.20;;;;;;;4.86;98.08;98812.66;5035222;28;20204;-79
2023/01/15 03:00:18;;;;;;;0.30;0.20;;;;;;;4.85;98.10;98820.44;5034324;28;20231;-77
2023/01/15 03:02:49;;;;;;;0.20;0.20;;;;;;;4.99;98.53;98813.22;5034791;28;20232;-79
2023/01/15 03:05:20;;;;;;;0.20;0.20;;;;;;;5.05;98.32;98825.16;5036599;28;20254;-78
2023/01/15 03:07:51;;;;;;;0.40;0.20;;;;;;;5.20;97.56;98829.16;5035464;28;20212;-79
2023/01/15 03:10:18;;;;;;;0.20;0.13;;;;;;;5.30;96.98;98810.78;5035725;28;20229;-79
2023/01/15 03:13:02;;;;;;;2.83;0.20;;;;;;;5.35;97.83;98828.78;5046484;28;20227;-78
2023/01/15 03:18:27;;;;;;;0.17;0.17;;;;;;;5.39;97.32;98856.28;5055442;28;20308;-79
2023/01/15 03:20:57;;;;;;;0.80;0.23;;;;;;;5.30;96.00;98848.75;5055294;28;20226;-78
2023/01/15 03:23:26;;;;;;;0.20;0.20;;;;;;;5.35;97.14;98855.53;5055921;28;20200;-78
2023/01/15 03:25:53;;;;;;;0.97;0.20;;;;;;;5.36;97.21;98831.34;5055754;28;20687;-78
2023/01/15 03:28:24;;;;;;;0.20;0.20;;;;;;;5.31;98.32;98807.31;5055765;28;20231;-78
2023/01/15 03:30:51;;;;;;;0.83;0.20;;;;;;;5.34;98.16;98806.41;5055068;28;20287;-78
2023/01/15 03:33:17;;;;;;;1.13;0.43;;;;;;;5.22;96.60;98824.81;5055264;28;20226;-77
2023/01/15 03:35:47;;;;;;;1.10;0.30;;;;;;;5.29;97.24;98822.03;5055658;28;20227;-77
2023/01/15 03:38:17;;;;;;;2.00;0.33;;;;;;;5.34;96.56;98815.00;5055512;28;20204;-78
2023/01/15 03:40:49;;;;;;;0.20;0.20;;;;;;;5.37;96.92;98807.19;5051590;28;20271;-78
2023/01/15 03:46:13;;;;;;;0.37;0.20;;;;;;;5.30;97.34;98803.03;5055110;28;20672;-78
2023/01/15 03:48:48;;;;;;;0.40;0.20;;;;;;;5.30;95.96;98817.72;5055606;28;20247;-78
2023/01/15 03:51:19;;;;;;;1.60;0.30;;;;;;;5.33;96.18;98835.72;5053936;28;20224;-78
2023/01/15 03:53:50;;;;;;;0.50;0.30;;;;;;;5.29;94.99;98844.44;5055097;28;20226;-77
2023/01/15 03:56:22;;;;;;;2.33;0.40;;;;;;;5.31;96.06;98840.97;5055468;28;20214;-78
2023/01/15 03:58:53;;;;;;;0.93;0.37;;;;;;;5.44;95.84;98823.41;5054606;28;20601;-78
2023/01/15 04:01:27;;;;;;;0.37;0.33;;;;;;;5.25;94.20;98855.75;5053938;28;20224;-77
2023/01/15 04:03:55;;;;;;;1.20;0.30;;;;;;;5.40;94.90;98852.81;5054424;28;20202;-78
2023/01/15 04:06:25;;;;;;;0.83;0.30;;;;;;;5.39;93.45;98840.75;5054865;28;20216;-78
2023/01/15 04:08:51;;;;;;;0.90;0.40;;;;;;;5.33;92.52;98896.09;5054420;28;20248;-77
2023/01/15 04:11:23;;;;;;;0.37;0.30;;;;;;;5.21;91.10;98923.97;5051081;28;20770;-78
2023/01/15 04:13:49;;;;;;;0.80;0.30;;;;;;;5.25;90.61;98936.81;5045493;28;20223;-77
2023/01/15 04:16:26;;;;;;;0.97;0.57;;;;;;;5.37;92.04;98926.19;5054726;28;20210;-78
2023/01/15 04:18:53;;;;;;;1.17;0.30;;;;;;;5.40;92.26;98906.31;5054440;28;20206;-78
2023/01/15 04:21:20;;;;;;;0.40;0.40;;;;;;;5.31;90.96;98935.81;5053304;28;20250;-78
2023/01/15 04:23:46;;;;;;;1.03;0.30;;;;;;;5.32;91.25;98933.19;5054528;28;20205;-78
2023/01/15 04:26:13;;;;;;;0.73;0.40;;;;;;;5.42;91.16;98927.81;5054650;28;20203;-77
2023/01/15 04:28:39;;;;;;;0.60;0.33;;;;;;;5.45;90.49;98938.97;5053970;28;20623;-78
2023/01/15 04:31:06;;;;;;;1.17;0.80;;;;;;;5.45;91.04;98925.16;5053181;28;20230;-78
2023/01/15 04:33:33;;;;;;;0.70;0.40;;;;;;;5.44;90.06;98955.38;5053938;28;20223;-78
2023/01/15 04:36:00;;;;;;;0.30;0.30;;;;;;;5.43;89.74;98963.16;5054026;28;20205;-78
2023/01/15 04:38:27;;;;;;;0.70;0.50;;;;;;;5.37;89.48;98944.31;5054354;28;20618;-78
2023/01/15 04:46:21;;;;;;;1.30;0.53;;;;;;;5.44;88.92;98962.28;5054005;28;20214;-78
2023/01/15 04:48:49;;;;;;;2.03;0.60;;;;;;;5.51;89.71;98975.06;5053695;28;20212;-78
2023/01/15 04:51:15;;;;;;;1.30;0.70;;;;;;;5.47;88.58;98986.38;5052903;28;20789;-78
2023/01/15 04:53:41;;;;;;;2.20;1.07;;;;;;;5.46;87.79;98995.00;5053832;28;20236;-77
2023/01/15 04:56:08;;;;;;;1.77;0.50;;;;;;;5.51;87.87;99010.41;5053618;28;20219;-78
2023/01/15 04:58:35;;;;;;;2.43;0.70;;;;;;;5.61;88.46;98998.13;5053321;28;20258;-78
2023/01/15 05:01:02;;;;;;;1.00;0.50;;;;;;;5.65;88.26;99003.22;5052911;28;20228;-78
2023/01/15 05:03:28;;;;;;;0.90;0.50;;;;;;;5.36;87.80;99027.13;5053011;28;20206;-77
2023/01/15 05:06:00;;;;;;;2.27;0.70;;;;;;;5.40;87.83;99022.75;5052940;28;20208;-78
2023/01/15 05:08:27;;;;;;;1.53;0.60;;;;;;;5.49;87.93;99020.81;5053150;28;20209;-78
2023/01/15 05:10:53;;;;;;;0.60;0.60;;;;;;;5.51;87.30;99021.66;5050689;28;20703;-77
2023/01/15 05:13:20;;;;;;;1.53;0.67;;;;;;;5.62;87.16;99038.66;5045317;28;20261;-78
2023/01/15 05:15:47;;;;;;;2.60;0.57;;;;;;;5.66;86.59;99046.34;5053635;28;20749;-78
2023/01/15 05:18:14;;;;;;;1.80;0.80;;;;;;;5.68;85.11;99078.22;5053409;28;20262;-78
2023/01/15 05:20:41;;;;;;;5.37;0.80;;;;;;;5.65;85.28;99099.00;5052428;28;20234;-77
2023/01/15 05:23:09;;;;;;;1.77;0.53;;;;;;;5.75;85.38;99073.78;5053168;28;20724;-78
2023/01/15 05:25:36;;;;;;;1.27;0.50;;;;;;;5.71;84.79;99067.81;5053778;28;20210;-77
2023/01/15 05:28:02;;;;;;;1.13;0.63;;;;;;;5.81;85.33;99070.19;5053675;28;20592;-78
2023/01/15 05:30:28;;;;;;;1.07;0.30;;;;;;;5.81;84.23;99081.41;5052195;28;20725;-78
2023/01/15 05:32:55;;;;;;;2.70;0.67;;;;;;;5.79;84.18;99127.19;5053464;28;20291;-78
2023/01/15 05:35:21;;;;;;;2.33;0.73;;;;;;;5.89;85.16;99115.75;5053321;28;20212;-78
2023/01/15 05:37:47;;;;;;;0.87;0.50;;;;;;;5.91;85.77;99102.78;5053706;28;20201;-78
2023/01/15 05:40:15;;;;;;;0.80;0.50;;;;;;;5.69;83.93;99121.34;5052328;28;20275;-78
2023/01/15 05:42:41;;;;;;;0.87;0.47;;;;;;;5.77;84.69;99131.56;5042905;28;20266;-78
2023/01/15 05:45:09;;;;;;;4.43;2.63;;;;;;;5.67;84.88;99125.72;5053352;28;20592;-78
2023/01/15 05:47:35;;;;;;;2.53;0.63;;;;;;;5.78;83.78;99110.78;5053280;28;20233;-77
2023/01/15 05:50:02;;;;;;;1.53;0.70;;;;;;;5.80;84.29;99113.34;5052184;28;20280;-78
2023/01/15 05:52:28;;;;;;;2.63;0.80;;;;;;;5.74;85.31;99106.56;5053358;28;20211;-77
2023/01/15 05:54:54;;;;;;;2.20;0.70;;;;;;;5.74;84.98;99113.47;5053270;28;20292;-78
2023/01/15 05:57:22;;;;;;;2.07;0.43;;;;;;;5.77;84.93;99101.34;5053384;28;20206;-79
2023/01/15 05:59:49;;;;;;;0.77;0.60;;;;;;;5.72;84.58;99110.91;5052797;28;20232;-78
2023/01/15 06:02:15;;;;;;;0.97;0.50;;;;;;;5.74;85.22;99088.44;5052823;28;20234;-78
2023/01/15 06:04:42;;;;;;;3.93;0.73;;;;;;;5.76;85.65;99085.81;5053095;28;20702;-79
2023/01/15 06:07:08;;;;;;;2.00;0.70;;;;;;;5.75;85.72;99071.19;5054052;28;20215;-78
2023/01/15 06:09:34;;;;;;;3.23;0.70;;;;;;;5.78;85.15;99081.47;5053122;28;20214;-77
2023/01/15 06:12:00;;;;;;;3.50;1.03;;;;;;;5.80;86.39;99056.38;5045609;28;20202;-78
2023/01/15 06:14:28;;;;;;;1.23;0.87;;;;;;;5.80;86.16;99064.16;5049801;28;20609;-78
2023/01/15 06:16:54;;;;;;;2.00;0.83;;;;;;;5.92;86.92;99061.28;5057141;28;20212;-78
2023/01/15 06:19:21;;;;;;;2.33;0.70;;;;;;;5.94;87.21;99050.91;5056605;28;20211;-78
2023/01/15 06:21:47;;;;;;;1.90;0.63;;;;;;;5.94;85.84;99049.16;5055915;28;20630;-78
2023/01/15 06:24:15;;;;;;;3.47;0.50;;;;;;;5.82;84.86;99087.44;5055780;28;20227;-77
2023/01/15 06:26:41;;;;;;;2.73;0.77;;;;;;;5.86;85.76;99074.38;5056240;28;20263;-78
2023/01/15 06:29:08;;;;;;;4.87;1.17;;;;;;;5.77;84.31;99103.91;5055659;28;20272;-77
2023/01/15 06:31:35;;;;;;;5.50;1.07;;;;;;;5.73;84.52;99107.47;5055113;28;20276;-77
2023/01/15 06:34:02;;;;;;;3.93;0.90;;;;;;;5.76;84.70;99116.91;5055708;28;20284;-78
2023/01/15 06:36:29;;;;;;;3.50;1.30;;;;;;;5.74;84.62;99114.31;5056233;28;20271;-78
2023/01/15 06:38:55;;;;;;;2.63;1.00;;;;;;;5.84;85.01;99127.94;5056005;28;20216;-78
2023/01/15 06:49:39;;;;;;;5.23;1.13;;;;;;;5.93;83.01;99169.19;5048195;28;20225;-79
2023/01/15 06:52:06;;;;;;;4.03;0.80;;;;;;;6.04;84.09;99169.00;5054638;28;20207;-78
2023/01/15 06:54:33;;;;;;;3.40;0.80;;;;;;;6.04;83.15;99158.63;5055565;28;20236;-78
2023/01/15 06:56:59;;;;;;;2.70;0.80;;;;;;;5.87;83.67;99151.19;5055737;28;20211;-77
2023/01/15 06:59:25;;;;;;;2.50;0.90;;;;;;;5.95;84.61;99131.19;5054921;28;20232;-78
2023/01/15 07:01:52;;;;;;;3.77;1.10;;;;;;;6.03;84.51;99125.00;5054763;28;20682;-78
2023/01/15 07:04:20;;;;;;;2.97;0.97;;;;;;;5.86;83.14;99151.22;5055430;28;20711;-78
2023/01/15 07:06:46;;;;;;;3.60;1.17;;;;;;;6.01;83.83;99138.00;5056298;28;20202;-78
2023/01/15 07:09:13;;;;;;;4.87;1.00;;;;;;;6.02;82.89;99142.25;5055171;28;20204;-77
2023/01/15 07:11:48;;;;;;;3.80;1.30;;;;;;;6.10;84.10;99136.94;5050573;28;20725;-78
2023/01/15 07:14:15;;;;;;;1.77;0.90;;;;;;;6.04;82.41;99150.84;5049774;28;20312;-77
2023/01/15 07:16:41;;;;;;;2.97;1.10;;;;;;;6.19;83.59;99143.66;5055234;28;20229;-78
2023/01/15 07:19:07;;;;;;;3.00;1.27;;;;;;;5.94;81.68;99185.56;5055096;28;20211;-77
2023/01/15 07:21:35;;;;;;;3.77;1.30;;;;;;;6.07;81.60;99191.41;5053806;28;20224;-77
2023/01/15 07:24:01;;;;;;;4.30;1.10;;;;;;;6.05;82.12;99181.06;5054959;28;20212;-78
2023/01/15 07:26:28;;;;;;;1.67;1.17;;;;;;;5.95;81.48;99188.19;5054221;28;20208;-77
2023/01/15 07:28:54;;;;;;;3.73;1.10;;;;;;;5.89;81.06;99200.38;5054858;28;20212;-78
2023/01/15 07:31:21;;;;;;;5.47;1.50;;;;;;;5.93;82.67;99183.88;5053792;28;20229;-77
2023/01/15 07:33:47;;;;;;;2.77;1.23;;;;;;;5.89;82.75;99169.28;5055055;28;20710;-78
2023/01/15 07:36:14;;;;;;;4.37;1.57;;;;;;;5.91;82.07;99173.56;5054623;28;20205;-78
2023/01/15 07:38:41;;;;;;;2.10;1.20;;;;;;;6.02;82.90;99164.72;5054639;28;20268;-78
2023/01/15 07:52:04;;;;;;;3.43;1.70;;;;;;;5.91;81.86;99170.13;5022140;28;20248;-78
2023/01/15 07:54:32;;;;;;;3.70;1.57;;;;;;;6.05;82.96;99165.53;5023529;28;20223;-78
2023/01/15 07:56:58;;;;;;;1.97;1.27;;;;;;;6.07;82.81;99157.72;5024825;28;20199;-77
2023/01/15 07:59:24;;;;;;;2.70;1.20;;;;;;;6.04;81.26;99181.94;5022404;28;20205;-77
2023/01/15 08:01:51;;;;;;;3.77;1.50;;;;;;;6.16;81.88;99167.88;5022923;28;20201;-79
2023/01/15 08:04:17;;;;;;;2.97;1.20;;;;;;;6.02;81.39;99185.47;5025192;28;20256;-78
2023/01/15 08:06:43;;;;;;;1.40;0.90;;;;;;;6.08;81.41;99188.75;5022564;28;20200;-78
2023/01/15 08:09:10;;;;;;;4.57;1.40;;;;;;;6.09;81.41;99185.31;5024555;28;20230;-79
2023/01/15 08:17:06;;;;;;;5.57;1.37;;;;;;;6.12;81.34;99186.97;5023076;28;20213;-79
2023/01/15 08:19:32;;;;;;;3.30;1.20;;;;;;;6.05;80.28;99217.34;5024050;28;20266;-79
2023/01/15 08:22:00;;;;;;;3.20;1.70;;;;;;;6.00;79.91;99229.50;5024181;28;20208;-77
2023/01/15 08:24:27;;;;;;;5.33;1.20;;;;;;;6.13;80.87;99219.78;5022450;28;20201;-78
2023/01/15 08:26:55;;;;;;;1.87;1.03;;;;;;;5.90;80.14;99221.03;5022965;28;20668;-77
2023/01/15 08:29:21;;;;;;;2.80;1.30;;;;;;;6.04;80.87;99232.91;5023899;28;20203;-78
2023/01/15 08:31:48;;;;;;;4.37;1.10;;;;;;;6.02;79.79;99232.06;5022028;28;20209;-77
2023/01/15 08:34:14;;;;;;;2.67;0.97;;;;;;;6.00;79.02;99241.63;5022284;28;20247;-77
2023/01/15 08:36:41;;;;;;;2.80;0.97;;;;;;;6.11;80.46;99230.16;5022546;28;20789;-78
2023/01/15 08:39:07;;;;;;;3.63;1.20;;;;;;;6.15;78.61;99254.28;5021675;28;20201;-77
2023/01/15 08:41:33;;;;;;;3.50;0.80;;;;;;;6.13;79.23;99251.72;5026228;28;20247;-77
2023/01/15 08:44:01;;;;;;;2.67;1.17;;;;;;;6.15;78.61;99264.63;5028540;28;20198;-78
2023/01/15 08:46:27;;;;;;;2.80;0.93;;;;;;;6.18;78.78;99261.97;5021091;28;20210;-77
2023/01/15 08:48:54;;;;;;;2.33;1.27;;;;;;;6.09;79.11;99267.34;5022152;28;20201;-77
2023/01/15 08:51:20;;;;;;;2.90;0.90;;;;;;;6.00;78.23;99281.31;5022434;28;20211;-77
2023/01/15 08:53:47;;;;;;;3.40;1.53;;;;;;;6.00;80.13;99272.69;5021399;28;20793;-77
2023/01/15 08:56:15;;;;;;;1.70;1.00;;;;;;;5.97;79.34;99255.50;5022462;28;20205;-79
2023/01/15 08:58:41;;;;;;;4.80;0.97;;;;;;;5.92;79.73;99255.53;5022720;28;20901;-78
2023/01/15 09:01:10;;;;;;;8.37;1.40;;;;;;;5.83;79.52;99252.25;5023828;28;20222;-77
2023/01/15 09:03:38;;;;;;;4.93;1.30;;;;;;;5.90;80.34;99233.97;5032372;28;20226;-77
2023/01/15 09:06:05;;;;;;;3.33;1.40;;;;;;;5.85;80.05;99227.22;5032854;28;20667;-79
2023/01/15 09:08:31;;;;;;;3.20;0.93;;;;;;;5.86;79.62;99244.44;5033596;28;20209;-78
2023/01/15 09:10:58;;;;;;;2.47;1.30;;;;;;;5.88;79.86;99237.50;5035242;28;20218;-78
2023/01/15 09:13:24;;;;;;;6.67;1.30;;;;;;;5.92;79.46;99236.56;5042218;28;20663;-78
2023/01/15 09:15:51;;;;;;;1.87;0.87;;;;;;;5.98;79.90;99239.06;5051438;28;20225;-77
2023/01/15 09:18:19;;;;;;;4.43;1.03;;;;;;;5.82;78.77;99259.19;5051867;28;20208;-78
2023/01/15 09:20:45;;;;;;;3.13;1.10;;;;;;;5.83;78.51;99262.63;5051070;28;20717;-78
2023/01/15 09:23:12;;;;;;;2.60;1.10;;;;;;;5.84;78.25;99275.53;5050862;28;20213;-78
2023/01/15 09:25:38;;;;;;;5.27;1.33;;;;;;;5.95;78.81;99275.38;5051580;28;20290;-77
2023/01/15 09:28:05;;;;;;;3.27;1.00;;;;;;;5.96;78.81;99285.69;5051884;28;20240;-77
2023/01/15 09:30:31;;;;;;;2.87;1.10;;;;;;;6.07;79.24;99271.72;5051104;28;20226;-77
2023/01/15 09:32:58;;;;;;;2.27;0.97;;;;;;;6.10;78.46;99293.22;5052071;28;20251;-77
2023/01/15 09:35:25;;;;;;;2.97;1.30;;;;;;;6.08;78.36;99299.31;5051556;28;20770;-77
2023/01/15 09:37:52;;;;;;;3.17;1.17;;;;;;;6.14;78.38;99309.56;5051669;28;20623;-77
2023/01/15 09:40:34;;;;;;;1.40;0.80;;;;;;;6.18;77.83;99321.56;5045036;28;20745;-76
2023/01/15 09:43:06;;;;;;;4.33;0.90;;;;;;;6.23;77.81;99309.38;5024820;28;20204;-77
2023/01/15 09:45:42;;;;;;;4.27;1.23;;;;;;;6.19;77.13;99331.06;5021923;28;20198;-77
2023/01/15 09:48:20;;;;;;;1.70;1.00;;;;;;;6.01;74.71;99367.69;5019639;28;20737;-77
2023/01/15 09:51:09;;;;;;;2.07;0.67;;;;;;;6.07;74.32;99399.50;5018878;28;20718;-77
2023/01/15 09:53:45;;;;;;;3.23;0.70;;;;;;;6.04;73.21;99402.13;5016158;28;20213;-76
2023/01/15 09:56:19;;;;;;;1.83;0.60;;;;;;;5.89;72.22;99443.81;5033016;28;20267;-76
2023/01/15 09:58:46;;;;;;;1.90;0.63;;;;;;;5.66;73.71;99476.06;5034970;28;21510;-77
2023/01/15 10:01:19;;;;;;;1.53;0.80;;;;;;;5.44;76.36;99453.97;5047807;28;20275;-76
2023/01/15 10:03:49;;;;;;;0.77;0.77;;;;;;;5.35;77.86;99387.66;5054479;28;20436;-77
2023/01/15 10:06:22;;;;;;;2.57;0.60;;;;;;;5.25;79.96;99330.03;5054687;28;20445;-76
2023/01/15 10:08:50;;;;;;;2.10;0.57;;;;;;;5.23;80.78;99272.28;5056309;28;20210;-77
2023/01/15 10:12:34;;;;;;;1.83;0.50;;;;;;;5.08;81.53;99224.25;5051661;28;20244;-77
2023/01/15 10:14:26;;;;;;;0.77;0.40;;;;;;;5.15;81.48;99175.84;5048650;28;20225;-77
2023/01/15 10:16:52;;;;;;;0.60;0.60;;;;;;;5.02;82.19;99145.91;5054205;28;20705;-77
2023/01/15 10:19:19;;;;;;;1.67;0.50;;;;;;;4.81;83.58;99126.44;5054177;28;20229;-77
2023/01/15 10:21:56;;;;;;;1.07;0.43;;;;;;;4.83;84.26;99088.47;5053266;28;20331;-77
2023/01/15 10:24:33;;;;;;;2.10;0.50;;;;;;;4.82;85.14;99053.19;5054284;28;20206;-77
2023/01/15 10:27:00;;;;;;;0.97;0.50;;;;;;;4.97;84.93;99035.66;5054212;28;20250;-78
2023/01/15 10:29:33;;;;;;;1.03;0.50;;;;;;;4.87;84.23;99039.28;5053812;28;20197;-77
2023/01/15 10:32:06;;;;;;;1.05;0.35;;;;;;;5.09;84.71;99046.63;5053092;28;20466;-77
2023/01/15 10:35:07;;;;;;;0.33;0.30;;;;;;;5.16;83.19;99041.31;5054242;28;20221;-77
2023/01/15 10:37:40;;;;;;;1.03;0.40;;;;;;;5.29;83.81;99054.88;5037560;28;20210;-77
2023/01/15 10:40:22;;;;;;;0.83;0.60;;;;;;;5.36;82.74;99079.72;5029773;28;20243;-77
2023/01/15 10:42:55;;;;;;;1.00;0.40;;;;;;;5.46;81.91;99088.16;5044655;28;20716;-77
2023/01/15 10:45:25;;;;;;;0.40;0.40;;;;;;;5.61;82.07;99104.25;5054108;28;20252;-77
2023/01/15 10:47:57;;;;;;;1.23;0.90;;;;;;;5.77;82.07;99110.84;5050898;28;20937;-77
2023/01/15 10:50:26;;;;;;;2.03;0.80;;;;;;;5.75;80.54;99156.63;5053112;28;20780;-77
2023/01/15 10:53:06;;;;;;;2.13;1.20;;;;;;;5.61;79.11;99181.91;5053886;28;20213;-77
2023/01/15 10:55:36;;;;;;;2.40;0.97;;;;;;;5.58;79.46;99191.44;5054443;28;20279;-78
2023/01/15 10:58:10;;;;;;;3.13;2.07;;;;;;;5.73;79.28;99197.22;5055236;28;20213;-80
2023/01/15 11:00:36;;;;;;;3.37;2.03;;;;;;;5.67;78.62;99194.72;5014365;28;20225;-78
2023/01/15 11:03:07;;;;;;;2.50;1.33;;;;;;;5.69;78.67;99230.09;5015399;28;20207;-79
2023/01/15 11:05:35;;;;;;;2.67;1.00;;;;;;;5.57;77.79;99228.56;5015740;28;20270;-79
2023/01/15 11:08:07;;;;;;;3.27;1.30;;;;;;;5.72;78.35;99244.69;5015985;28;20212;-81
2023/01/15 11:10:33;;;;;;;3.27;1.00;;;;;;;5.75;78.57;99249.84;5018633;28;20280;-78
2023/01/15 11:21:29;;;;;;;3.77;0.80;;;;;;;6.06;76.59;99270.84;5023435;28;20795;-79
2023/01/15 11:23:59;;;;;;;3.30;0.87;;;;;;;6.19;76.37;99319.84;4328923;28;10000735;-79
2023/01/15 11:26:27;;;;;;;4.77;1.00;;;;;;;6.12;74.67;99340.66;5030768;28;20202;-78
2023/01/15 11:28:55;;;;;;;3.37;0.83;;;;;;;6.27;76.11;99343.88;5031387;28;20208;-77
2023/01/15 11:31:21;;;;;;;2.27;0.87;;;;;;;6.29;75.62;99379.22;5031325;28;20236;-77
2023/01/15 11:33:58;;;;;;;3.30;1.53;;;;;;;6.27;75.54;99354.25;5030904;28;20265;-78
2023/01/15 11:36:27;;;;;;;4.60;1.30;;;;;;;6.33;74.90;99343.75;5032952;28;20229;-80
2023/01/15 11:38:53;;;;;;;1.87;0.80;;;;;;;6.20;73.76;99386.31;5032285;28;20279;-79
2023/01/15 11:50:42;;;;;;;2.47;0.90;;;;;;;6.24;72.99;99411.28;5038254;28;20725;-77
2023/01/15 11:52:36;;;;;;;2.40;0.90;;;;;;;6.34;71.68;99522.56;5050491;28;20212;-79
2023/01/15 11:55:03;;;;;;;1.60;0.70;;;;;;;6.34;72.29;99519.97;5050661;28;20320;-78
2023/01/15 11:57:33;;;;;;;2.47;0.80;;;;;;;6.35;71.29;99526.00;5050732;28;20732;-79
2023/01/15 12:00:03;;;;;;;1.03;0.60;;;;;;;6.38;70.45;99525.09;5047848;28;20740;-76
2023/01/15 12:02:38;;;;;;;2.50;0.83;;;;;;;6.37;69.33;99570.88;5049496;28;20231;-77
2023/01/15 12:05:06;;;;;;;2.63;0.97;;;;;;;6.35;69.86;99572.66;5049750;28;20293;-77
2023/01/15 12:07:38;;;;;;;1.17;0.80;;;;;;;6.41;69.51;99564.78;5030392;28;20282;-80
2023/01/15 12:11:02;;;;;;;1.97;1.37;;;;;;;6.48;69.45;99596.63;5029099;28;20297;-78
2023/01/15 12:13:32;;;;;;;3.80;3.03;;;;;;;6.55;68.91;99586.13;5033821;28;20200;-80
2023/01/15 12:16:08;;;;;;;1.57;1.33;;;;;;;6.69;68.77;99601.47;5031338;28;20233;-79
2023/01/15 12:18:55;;;;;;;1.57;1.13;;;;;;;6.85;68.40;99606.41;5031403;28;20306;-78
2023/01/15 12:21:53;;;;;;;1.27;0.70;;;;;;;6.86;67.21;99632.31;5029322;28;20265;-78
2023/01/15 12:24:34;;;;;;;2.60;0.80;;;;;;;6.76;66.23;99680.06;5023186;28;20268;-78
2023/01/15 12:27:15;;;;;;;2.60;0.80;;;;;;;6.87;66.77;99675.53;5029675;28;20202;-77
2023/01/15 12:29:48;;;;;;;2.00;1.03;;;;;;;6.80;66.60;99680.84;5029675;28;20234;-78
2023/01/15 12:32:19;;;;;;;2.57;0.80;;;;;;;6.63;66.62;99714.81;5029827;28;20447;-78
2023/01/15 12:34:52;;;;;;;5.00;0.70;;;;;;;6.65;67.15;99690.56;5029466;28;20662;-77
2023/01/15 12:37:23;;;;;;;1.97;0.80;;;;;;;6.75;66.87;99674.00;5030713;28;20243;-78
2023/01/15 12:39:54;;;;;;;2.77;0.60;;;;;;;6.74;65.82;99682.66;5029522;28;20244;-78
2023/01/15 12:45:14;;;;;;;2.80;0.77;;;;;;;6.62;65.72;99711.38;5010100;28;20251;-78
2023/01/15 12:47:47;;;;;;;1.97;0.60;;;;;;;6.60;64.94;99688.94;5008218;28;20210;-78